sensor_id;sensor_type;location;lat;lon;timestamp;temperature;humidity
40534;DHT22;26233;51.894;10.192;2023-11-22T00:02:16;4.80;51.20
40534;DHT22;26233;51.894;10.192;2023-11-22T00:04:43;4.70;51.30
40534;DHT22;26233;51.894;10.192;2023-11-22T00:07:10;4.80;51.50
40534;DHT22;26233;51.894;10.192;2023-11-22T00:09:38;4.70;51.40
40534;DHT22;26233;51.894;10.192;2023-11-22T00:12:06;4.70;51.40
40534;DHT22;26233;51.894;10.192;2023-11-22T00:14:34;4.60;51.30
40534;DHT22;26233;51.894;10.192;2023-11-22T00:17:03;4.60;51.30
40534;DHT22;26233;51.894;10.192;2023-11-22T00:19:30;4.50;51.30
40534;DHT22;26233;51.894;10.192;2023-11-22T00:21:58;4.50;51.40
40534;DHT22;26233;51.894;10.192;2023-11-22T00:24:25;4.50;51.50
40534;DHT22;26233;51.894;10.192;2023-11-22T00:26:52;4.40;51.50
40534;DHT22;26233;51.894;10.192;2023-11-22T00:29:19;4.40;51.60
40534;DHT22;26233;51.894;10.192;2023-11-22T00:31:46;4.40;51.70
40534;DHT22;26233;51.894;10.192;2023-11-22T00:34:14;4.40;51.80
40534;DHT22;26233;51.894;10.192;2023-11-22T00:36:42;4.40;51.90
40534;DHT22;26233;51.894;10.192;2023-11-22T00:39:09;4.40;52.60
40534;DHT22;26233;51.894;10.192;2023-11-22T00:41:38;4.40;51.90
40534;DHT22;26233;51.894;10.192;2023-11-22T00:44:05;4.40;52.00
40534;DHT22;26233;51.894;10.192;2023-11-22T00:46:33;4.40;52.10
40534;DHT22;26233;51.894;10.192;2023-11-22T00:49:00;4.40;52.20
40534;DHT22;26233;51.894;10.192;2023-11-22T00:51:28;4.40;52.20
40534;DHT22;26233;51.894;10.192;2023-11-22T00:53:56;4.40;52.30
40534;DHT22;26233;51.894;10.192;2023-11-22T00:56:23;4.50;53.00
40534;DHT22;26233;51.894;10.192;2023-11-22T00:58:50;4.50;52.40
40534;DHT22;26233;51.894;10.192;2023-11-22T01:01:18;4.50;52.40
40534;DHT22;26233;51.894;10.192;2023-11-22T01:03:46;4.50;52.30
40534;DHT22;26233;51.894;10.192;2023-11-22T01:06:13;4.50;52.30
40534;DHT22;26233;51.894;10.192;2023-11-22T01:08:41;4.50;52.30
40534;DHT22;26233;51.894;10.192;2023-11-22T01:11:08;4.50;52.30
40534;DHT22;26233;51.894;10.192;2023-11-22T01:13:35;4.50;52.40
40534;DHT22;26233;51.894;10.192;2023-11-22T01:16:06;4.50;52.30
40534;DHT22;26233;51.894;10.192;2023-11-22T01:18:33;4.60;52.40
40534;DHT22;26233;51.894;10.192;2023-11-22T01:21:01;4.60;52.30
40534;DHT22;26233;51.894;10.192;2023-11-22T01:23:29;4.60;52.30
40534;DHT22;26233;51.894;10.192;2023-11-22T01:25:58;4.60;52.30
40534;DHT22;26233;51.894;10.192;2023-11-22T01:28:25;4.60;52.20
40534;DHT22;26233;51.894;10.192;2023-11-22T01:30:53;4.50;52.10
40534;DHT22;26233;51.894;10.192;2023-11-22T01:33:21;4.50;52.10
40534;DHT22;26233;51.894;10.192;2023-11-22T01:35:48;4.50;52.10
40534;DHT22;26233;51.894;10.192;2023-11-22T01:38:16;4.50;52.10
40534;DHT22;26233;51.894;10.192;2023-11-22T01:40:44;4.50;52.10
40534;DHT22;26233;51.894;10.192;2023-11-22T01:43:14;4.50;52.20
40534;DHT22;26233;51.894;10.192;2023-11-22T01:45:42;4.40;52.10
40534;DHT22;26233;51.894;10.192;2023-11-22T01:48:10;4.50;52.30
40534;DHT22;26233;51.894;10.192;2023-11-22T01:50:38;4.50;52.30
40534;DHT22;26233;51.894;10.192;2023-11-22T01:53:06;4.50;52.30
40534;DHT22;26233;51.894;10.192;2023-11-22T01:55:34;4.50;52.30
40534;DHT22;26233;51.894;10.192;2023-11-22T01:58:01;4.50;52.20
40534;DHT22;26233;51.894;10.192;2023-11-22T02:00:32;4.40;52.20
40534;DHT22;26233;51.894;10.192;2023-11-22T02:03:02;4.40;52.00
40534;DHT22;26233;51.894;10.192;2023-11-22T02:05:29;4.40;52.00
40534;DHT22;26233;51.894;10.192;2023-11-22T02:07:57;4.30;51.90
40534;DHT22;26233;51.894;10.192;2023-11-22T02:10:25;4.30;52.00
40534;DHT22;26233;51.894;10.192;2023-11-22T02:12:52;4.30;52.00
40534;DHT22;26233;51.894;10.192;2023-11-22T02:15:19;4.20;51.90
40534;DHT22;26233;51.894;10.192;2023-11-22T02:17:47;4.20;51.90
40534;DHT22;26233;51.894;10.192;2023-11-22T02:20:14;4.10;51.80
40534;DHT22;26233;51.894;10.192;2023-11-22T02:22:45;3.90;51.60
40534;DHT22;26233;51.894;10.192;2023-11-22T02:25:14;4.00;51.70
40534;DHT22;26233;51.894;10.192;2023-11-22T02:27:41;4.00;51.80
40534;DHT22;26233;51.894;10.192;2023-11-22T02:30:09;4.00;51.80
40534;DHT22;26233;51.894;10.192;2023-11-22T02:32:37;3.90;51.70
40534;DHT22;26233;51.894;10.192;2023-11-22T02:35:05;3.90;51.70
40534;DHT22;26233;51.894;10.192;2023-11-22T02:37:33;3.80;51.60
40534;DHT22;26233;51.894;10.192;2023-11-22T02:40:05;3.80;51.60
40534;DHT22;26233;51.894;10.192;2023-11-22T02:42:36;3.70;51.70
40534;DHT22;26233;51.894;10.192;2023-11-22T02:45:04;3.70;51.80
40534;DHT22;26233;51.894;10.192;2023-11-22T02:47:32;3.60;51.80
40534;DHT22;26233;51.894;10.192;2023-11-22T02:50:00;3.60;51.90
40534;DHT22;26233;51.894;10.192;2023-11-22T02:52:28;3.60;51.90
40534;DHT22;26233;51.894;10.192;2023-11-22T02:54:55;3.50;51.80
40534;DHT22;26233;51.894;10.192;2023-11-22T02:57:22;3.50;51.80
40534;DHT22;26233;51.894;10.192;2023-11-22T02:59:50;3.40;52.30
40534;DHT22;26233;51.894;10.192;2023-11-22T03:02:18;3.40;51.70
40534;DHT22;26233;51.894;10.192;2023-11-22T03:04:45;3.40;51.80
40534;DHT22;26233;51.894;10.192;2023-11-22T03:07:12;3.40;51.90
40534;DHT22;26233;51.894;10.192;2023-11-22T03:09:39;3.30;51.90
40534;DHT22;26233;51.894;10.192;2023-11-22T03:12:06;3.30;51.90
40534;DHT22;26233;51.894;10.192;2023-11-22T03:14:34;3.30;52.00
40534;DHT22;26233;51.894;10.192;2023-11-22T03:17:03;3.30;52.10
40534;DHT22;26233;51.894;10.192;2023-11-22T03:19:30;3.20;52.00
40534;DHT22;26233;51.894;10.192;2023-11-22T03:21:59;3.20;52.10
40534;DHT22;26233;51.894;10.192;2023-11-22T03:24:28;3.20;52.20
40534;DHT22;26233;51.894;10.192;2023-11-22T03:26:56;3.20;52.20
40534;DHT22;26233;51.894;10.192;2023-11-22T03:29:24;3.20;52.20
40534;DHT22;26233;51.894;10.192;2023-11-22T03:31:51;3.20;52.30
40534;DHT22;26233;51.894;10.192;2023-11-22T03:34:20;3.20;52.30
40534;DHT22;26233;51.894;10.192;2023-11-22T03:36:47;3.20;52.30
40534;DHT22;26233;51.894;10.192;2023-11-22T03:39:15;3.20;52.30
40534;DHT22;26233;51.894;10.192;2023-11-22T03:41:42;3.20;52.30
40534;DHT22;26233;51.894;10.192;2023-11-22T03:44:10;3.20;52.40
40534;DHT22;26233;51.894;10.192;2023-11-22T03:46:37;3.20;52.40
40534;DHT22;26233;51.894;10.192;2023-11-22T03:49:05;3.20;52.40
40534;DHT22;26233;51.894;10.192;2023-11-22T03:51:35;3.20;52.40
40534;DHT22;26233;51.894;10.192;2023-11-22T03:54:03;3.20;52.30
40534;DHT22;26233;51.894;10.192;2023-11-22T03:56:31;3.20;52.30
40534;DHT22;26233;51.894;10.192;2023-11-22T03:58:59;3.20;52.50
40534;DHT22;26233;51.894;10.192;2023-11-22T04:01:26;3.20;52.50
40534;DHT22;26233;51.894;10.192;2023-11-22T04:03:53;3.10;52.40
40534;DHT22;26233;51.894;10.192;2023-11-22T04:06:20;3.10;52.50
40534;DHT22;26233;51.894;10.192;2023-11-22T04:08:49;3.10;52.60
40534;DHT22;26233;51.894;10.192;2023-11-22T04:11:18;3.20;52.80
40534;DHT22;26233;51.894;10.192;2023-11-22T04:13:48;3.20;52.90
40534;DHT22;26233;51.894;10.192;2023-11-22T04:16:15;3.20;53.50
40534;DHT22;26233;51.894;10.192;2023-11-22T04:18:43;3.20;53.00
40534;DHT22;26233;51.894;10.192;2023-11-22T04:21:10;3.20;53.20
40534;DHT22;26233;51.894;10.192;2023-11-22T04:23:37;3.20;53.30
40534;DHT22;26233;51.894;10.192;2023-11-22T04:26:05;3.30;53.40
40534;DHT22;26233;51.894;10.192;2023-11-22T04:28:33;3.30;53.40
40534;DHT22;26233;51.894;10.192;2023-11-22T04:31:01;3.30;53.40
40534;DHT22;26233;51.894;10.192;2023-11-22T04:33:29;3.40;53.40
40534;DHT22;26233;51.894;10.192;2023-11-22T04:35:56;3.40;53.30
40534;DHT22;26233;51.894;10.192;2023-11-22T04:38:23;3.40;53.20
40534;DHT22;26233;51.894;10.192;2023-11-22T04:40:50;3.40;53.20
40534;DHT22;26233;51.894;10.192;2023-11-22T04:43:19;3.40;53.20
40534;DHT22;26233;51.894;10.192;2023-11-22T04:45:46;3.30;53.10
40534;DHT22;26233;51.894;10.192;2023-11-22T04:48:13;3.30;53.10
40534;DHT22;26233;51.894;10.192;2023-11-22T04:50:41;3.30;53.10
40534;DHT22;26233;51.894;10.192;2023-11-22T04:53:08;3.30;53.00
40534;DHT22;26233;51.894;10.192;2023-11-22T04:55:35;3.30;53.00
40534;DHT22;26233;51.894;10.192;2023-11-22T04:58:02;3.30;53.10
40534;DHT22;26233;51.894;10.192;2023-11-22T05:00:31;3.20;53.00
40534;DHT22;26233;51.894;10.192;2023-11-22T05:02:58;3.20;53.00
40534;DHT22;26233;51.894;10.192;2023-11-22T05:05:25;3.20;53.00
40534;DHT22;26233;51.894;10.192;2023-11-22T05:07:52;3.30;53.20
40534;DHT22;26233;51.894;10.192;2023-11-22T05:10:19;3.20;53.70
40534;DHT22;26233;51.894;10.192;2023-11-22T05:12:46;3.20;53.00
40534;DHT22;26233;51.894;10.192;2023-11-22T05:15:13;3.30;53.10
40534;DHT22;26233;51.894;10.192;2023-11-22T05:17:42;3.20;53.00
40534;DHT22;26233;51.894;10.192;2023-11-22T05:20:09;3.20;53.00
40534;DHT22;26233;51.894;10.192;2023-11-22T05:22:36;3.20;53.00
40534;DHT22;26233;51.894;10.192;2023-11-22T05:25:04;3.10;53.00
40534;DHT22;26233;51.894;10.192;2023-11-22T05:27:32;3.10;53.00
40534;DHT22;26233;51.894;10.192;2023-11-22T05:29:59;3.10;53.00
40534;DHT22;26233;51.894;10.192;2023-11-22T05:32:27;3.10;53.00
40534;DHT22;26233;51.894;10.192;2023-11-22T05:34:56;3.00;53.00
40534;DHT22;26233;51.894;10.192;2023-11-22T05:37:23;3.00;53.00
40534;DHT22;26233;51.894;10.192;2023-11-22T05:39:50;3.00;53.00
40534;DHT22;26233;51.894;10.192;2023-11-22T05:42:17;3.00;53.00
40534;DHT22;26233;51.894;10.192;2023-11-22T05:44:44;3.00;53.10
40534;DHT22;26233;51.894;10.192;2023-11-22T05:47:11;3.00;53.10
40534;DHT22;26233;51.894;10.192;2023-11-22T05:49:39;3.00;53.00
40534;DHT22;26233;51.894;10.192;2023-11-22T05:52:07;2.90;53.00
40534;DHT22;26233;51.894;10.192;2023-11-22T05:54:34;3.00;53.10
40534;DHT22;26233;51.894;10.192;2023-11-22T05:57:02;2.90;53.10
40534;DHT22;26233;51.894;10.192;2023-11-22T05:59:30;2.90;53.00
40534;DHT22;26233;51.894;10.192;2023-11-22T06:01:57;2.90;53.20
40534;DHT22;26233;51.894;10.192;2023-11-22T06:04:24;2.90;53.20
40534;DHT22;26233;51.894;10.192;2023-11-22T06:06:51;2.90;53.20
40534;DHT22;26233;51.894;10.192;2023-11-22T06:09:19;2.90;53.30
40534;DHT22;26233;51.894;10.192;2023-11-22T06:11:48;2.90;53.30
40534;DHT22;26233;51.894;10.192;2023-11-22T06:14:15;2.90;53.30
40534;DHT22;26233;51.894;10.192;2023-11-22T06:16:42;2.90;53.40
40534;DHT22;26233;51.894;10.192;2023-11-22T06:19:09;2.90;53.30
40534;DHT22;26233;51.894;10.192;2023-11-22T06:21:36;3.00;53.30
40534;DHT22;26233;51.894;10.192;2023-11-22T06:24:04;3.00;53.30
40534;DHT22;26233;51.894;10.192;2023-11-22T06:26:35;3.00;53.20
40534;DHT22;26233;51.894;10.192;2023-11-22T06:29:04;3.00;53.10
40534;DHT22;26233;51.894;10.192;2023-11-22T06:31:31;3.00;53.10
40534;DHT22;26233;51.894;10.192;2023-11-22T06:33:59;3.00;53.00
40534;DHT22;26233;51.894;10.192;2023-11-22T06:36:27;3.00;53.00
40534;DHT22;26233;51.894;10.192;2023-11-22T06:38:55;3.00;53.10
40534;DHT22;26233;51.894;10.192;2023-11-22T06:41:22;3.00;53.10
40534;DHT22;26233;51.894;10.192;2023-11-22T06:43:50;3.00;53.10
40534;DHT22;26233;51.894;10.192;2023-11-22T06:46:17;3.00;53.10
40534;DHT22;26233;51.894;10.192;2023-11-22T06:48:44;3.00;53.00
40534;DHT22;26233;51.894;10.192;2023-11-22T06:51:11;3.00;53.10
40534;DHT22;26233;51.894;10.192;2023-11-22T06:53:38;3.00;53.10
40534;DHT22;26233;51.894;10.192;2023-11-22T06:56:05;3.00;53.20
40534;DHT22;26233;51.894;10.192;2023-11-22T06:58:32;3.00;53.20
40534;DHT22;26233;51.894;10.192;2023-11-22T07:01:01;3.00;53.30
40534;DHT22;26233;51.894;10.192;2023-11-22T07:03:29;3.10;53.20
40534;DHT22;26233;51.894;10.192;2023-11-22T07:05:57;3.10;53.20
40534;DHT22;26233;51.894;10.192;2023-11-22T07:08:24;3.10;53.20
40534;DHT22;26233;51.894;10.192;2023-11-22T07:10:53;3.10;53.30
40534;DHT22;26233;51.894;10.192;2023-11-22T07:13:22;3.10;53.70
40534;DHT22;26233;51.894;10.192;2023-11-22T07:15:49;3.10;53.10
40534;DHT22;26233;51.894;10.192;2023-11-22T07:18:18;3.20;53.20
40534;DHT22;26233;51.894;10.192;2023-11-22T07:20:45;3.20;53.20
40534;DHT22;26233;51.894;10.192;2023-11-22T07:23:13;3.20;53.30
40534;DHT22;26233;51.894;10.192;2023-11-22T07:25:41;3.20;53.10
40534;DHT22;26233;51.894;10.192;2023-11-22T07:28:09;3.20;53.10
40534;DHT22;26233;51.894;10.192;2023-11-22T07:30:36;3.30;53.20
40534;DHT22;26233;51.894;10.192;2023-11-22T07:33:06;3.30;53.30
40534;DHT22;26233;51.894;10.192;2023-11-22T07:35:35;3.40;53.40
40534;DHT22;26233;51.894;10.192;2023-11-22T07:38:02;3.40;53.40
40534;DHT22;26233;51.894;10.192;2023-11-22T07:40:29;3.40;53.50
40534;DHT22;26233;51.894;10.192;2023-11-22T07:42:57;3.50;53.70
40534;DHT22;26233;51.894;10.192;2023-11-22T07:45:24;3.60;53.70
40534;DHT22;26233;51.894;10.192;2023-11-22T07:47:53;3.60;53.70
40534;DHT22;26233;51.894;10.192;2023-11-22T07:50:23;3.70;53.80
40534;DHT22;26233;51.894;10.192;2023-11-22T07:52:52;3.70;53.80
40534;DHT22;26233;51.894;10.192;2023-11-22T07:55:20;3.80;53.90
40534;DHT22;26233;51.894;10.192;2023-11-22T07:57:48;3.80;53.80
40534;DHT22;26233;51.894;10.192;2023-11-22T08:00:17;3.90;53.90
40534;DHT22;26233;51.894;10.192;2023-11-22T08:02:45;4.00;53.80
40534;DHT22;26233;51.894;10.192;2023-11-22T08:05:13;4.00;53.70
40534;DHT22;26233;51.894;10.192;2023-11-22T08:07:40;4.10;53.50
40534;DHT22;26233;51.894;10.192;2023-11-22T08:10:11;4.10;53.30
40534;DHT22;26233;51.894;10.192;2023-11-22T08:12:45;4.10;53.40
40534;DHT22;26233;51.894;10.192;2023-11-22T08:15:14;4.20;53.30
40534;DHT22;26233;51.894;10.192;2023-11-22T08:17:41;4.20;53.40
40534;DHT22;26233;51.894;10.192;2023-11-22T08:20:09;4.20;53.40
40534;DHT22;26233;51.894;10.192;2023-11-22T08:22:39;4.30;53.50
40534;DHT22;26233;51.894;10.192;2023-11-22T08:25:07;4.30;54.00
40534;DHT22;26233;51.894;10.192;2023-11-22T08:27:39;4.40;53.50
40534;DHT22;26233;51.894;10.192;2023-11-22T08:30:08;4.50;53.50
40534;DHT22;26233;51.894;10.192;2023-11-22T08:32:39;4.50;53.50
40534;DHT22;26233;51.894;10.192;2023-11-22T08:35:08;4.70;53.80
40534;DHT22;26233;51.894;10.192;2023-11-22T08:37:36;4.70;53.70
40534;DHT22;26233;51.894;10.192;2023-11-22T08:40:08;4.80;54.10
40534;DHT22;26233;51.894;10.192;2023-11-22T08:42:38;4.90;54.00
40534;DHT22;26233;51.894;10.192;2023-11-22T08:45:07;5.10;54.30
40534;DHT22;26233;51.894;10.192;2023-11-22T08:47:37;5.20;54.50
40534;DHT22;26233;51.894;10.192;2023-11-22T08:50:06;5.40;54.60
40534;DHT22;26233;51.894;10.192;2023-11-22T08:52:36;5.50;54.50
40534;DHT22;26233;51.894;10.192;2023-11-22T08:55:05;5.70;54.70
40534;DHT22;26233;51.894;10.192;2023-11-22T08:57:33;5.80;54.70
40534;DHT22;26233;51.894;10.192;2023-11-22T09:00:04;6.00;54.60
40534;DHT22;26233;51.894;10.192;2023-11-22T09:02:34;6.10;54.60
40534;DHT22;26233;51.894;10.192;2023-11-22T09:05:02;6.20;54.40
40534;DHT22;26233;51.894;10.192;2023-11-22T09:07:32;6.30;54.20
40534;DHT22;26233;51.894;10.192;2023-11-22T09:10:01;6.40;54.10
40534;DHT22;26233;51.894;10.192;2023-11-22T09:12:35;6.50;53.90
40534;DHT22;26233;51.894;10.192;2023-11-22T09:15:05;6.60;53.80
40534;DHT22;26233;51.894;10.192;2023-11-22T09:17:35;6.70;53.60
40534;DHT22;26233;51.894;10.192;2023-11-22T09:20:06;6.60;53.30
40534;DHT22;26233;51.894;10.192;2023-11-22T09:22:36;6.70;53.20
40534;DHT22;26233;51.894;10.192;2023-11-22T09:25:06;6.60;52.70
40534;DHT22;26233;51.894;10.192;2023-11-22T09:27:36;6.70;53.00
40534;DHT22;26233;51.894;10.192;2023-11-22T09:30:08;6.60;52.50
40534;DHT22;26233;51.894;10.192;2023-11-22T09:32:44;6.60;52.20
40534;DHT22;26233;51.894;10.192;2023-11-22T09:35:11;6.50;52.20
40534;DHT22;26233;51.894;10.192;2023-11-22T09:37:40;6.40;52.00
40534;DHT22;26233;51.894;10.192;2023-11-22T09:40:11;6.40;52.50
40534;DHT22;26233;51.894;10.192;2023-11-22T09:42:43;6.40;52.70
40534;DHT22;26233;51.894;10.192;2023-11-22T09:45:17;6.40;52.80
40534;DHT22;26233;51.894;10.192;2023-11-22T09:47:46;6.50;52.80
40534;DHT22;26233;51.894;10.192;2023-11-22T09:50:17;6.50;52.60
40534;DHT22;26233;51.894;10.192;2023-11-22T09:52:46;6.50;52.10
40534;DHT22;26233;51.894;10.192;2023-11-22T09:55:18;6.50;52.20
40534;DHT22;26233;51.894;10.192;2023-11-22T09:57:47;6.40;51.90
40534;DHT22;26233;51.894;10.192;2023-11-22T10:00:18;6.40;51.90
40534;DHT22;26233;51.894;10.192;2023-11-22T10:02:47;6.40;52.00
40534;DHT22;26233;51.894;10.192;2023-11-22T10:05:14;6.40;52.70
40534;DHT22;26233;51.894;10.192;2023-11-22T10:07:41;6.40;52.70
40534;DHT22;26233;51.894;10.192;2023-11-22T10:10:08;6.40;52.50
40534;DHT22;26233;51.894;10.192;2023-11-22T10:12:36;6.50;52.60
40534;DHT22;26233;51.894;10.192;2023-11-22T10:15:13;6.50;52.70
40534;DHT22;26233;51.894;10.192;2023-11-22T10:17:47;6.60;52.50
40534;DHT22;26233;51.894;10.192;2023-11-22T10:20:18;6.60;52.50
40534;DHT22;26233;51.894;10.192;2023-11-22T10:22:46;6.70;52.80
40534;DHT22;26233;51.894;10.192;2023-11-22T10:25:14;6.80;53.00
40534;DHT22;26233;51.894;10.192;2023-11-22T10:27:45;6.90;52.80
40534;DHT22;26233;51.894;10.192;2023-11-22T10:30:13;7.00;52.80
40534;DHT22;26233;51.894;10.192;2023-11-22T10:32:43;7.00;52.80
40534;DHT22;26233;51.894;10.192;2023-11-22T10:35:11;7.10;52.70
40534;DHT22;26233;51.894;10.192;2023-11-22T10:37:41;7.20;52.70
40534;DHT22;26233;51.894;10.192;2023-11-22T10:40:12;7.20;52.70
40534;DHT22;26233;51.894;10.192;2023-11-22T10:42:41;7.20;52.30
40534;DHT22;26233;51.894;10.192;2023-11-22T10:45:09;7.20;52.30
40534;DHT22;26233;51.894;10.192;2023-11-22T10:47:37;7.20;52.00
40534;DHT22;26233;51.894;10.192;2023-11-22T10:50:10;7.20;52.00
40534;DHT22;26233;51.894;10.192;2023-11-22T10:52:40;7.10;51.60
40534;DHT22;26233;51.894;10.192;2023-11-22T10:55:11;7.00;51.40
40534;DHT22;26233;51.894;10.192;2023-11-22T10:57:44;6.90;51.10
40534;DHT22;26233;51.894;10.192;2023-11-22T11:00:15;6.80;51.60
40534;DHT22;26233;51.894;10.192;2023-11-22T11:02:45;6.70;51.00
40534;DHT22;26233;51.894;10.192;2023-11-22T11:05:20;6.60;51.30
40534;DHT22;26233;51.894;10.192;2023-11-22T11:08:00;6.60;51.60
40534;DHT22;26233;51.894;10.192;2023-11-22T11:10:28;6.60;51.60
40534;DHT22;26233;51.894;10.192;2023-11-22T11:12:56;6.60;51.80
40534;DHT22;26233;51.894;10.192;2023-11-22T11:15:24;6.60;52.00
40534;DHT22;26233;51.894;10.192;2023-11-22T11:17:53;6.60;51.80
40534;DHT22;26233;51.894;10.192;2023-11-22T11:20:22;6.60;51.60
40534;DHT22;26233;51.894;10.192;2023-11-22T11:22:50;6.60;51.50
40534;DHT22;26233;51.894;10.192;2023-11-22T11:25:17;6.60;51.40
40534;DHT22;26233;51.894;10.192;2023-11-22T11:27:54;6.70;51.30
40534;DHT22;26233;51.894;10.192;2023-11-22T11:30:45;6.60;51.20
40534;DHT22;26233;51.894;10.192;2023-11-22T11:33:14;6.50;50.20
40534;DHT22;26233;51.894;10.192;2023-11-22T11:35:47;6.50;51.30
40534;DHT22;26233;51.894;10.192;2023-11-22T11:38:15;6.50;51.60
40534;DHT22;26233;51.894;10.192;2023-11-22T11:40:45;6.60;51.80
40534;DHT22;26233;51.894;10.192;2023-11-22T11:43:13;6.70;51.90
40534;DHT22;26233;51.894;10.192;2023-11-22T11:45:42;6.70;52.10
40534;DHT22;26233;51.894;10.192;2023-11-22T11:48:12;6.90;52.00
40534;DHT22;26233;51.894;10.192;2023-11-22T11:50:40;7.00;52.00
40534;DHT22;26233;51.894;10.192;2023-11-22T11:53:09;7.10;51.90
40534;DHT22;26233;51.894;10.192;2023-11-22T11:55:36;7.20;51.70
40534;DHT22;26233;51.894;10.192;2023-11-22T11:58:07;7.20;51.50
40534;DHT22;26233;51.894;10.192;2023-11-22T12:00:35;7.20;51.20
40534;DHT22;26233;51.894;10.192;2023-11-22T12:03:06;7.30;51.20
40534;DHT22;26233;51.894;10.192;2023-11-22T12:05:36;7.30;51.00
40534;DHT22;26233;51.894;10.192;2023-11-22T12:08:04;7.30;50.90
40534;DHT22;26233;51.894;10.192;2023-11-22T12:10:32;7.30;50.70
40534;DHT22;26233;51.894;10.192;2023-11-22T12:12:59;7.20;51.10
40534;DHT22;26233;51.894;10.192;2023-11-22T12:15:27;7.20;50.40
40534;DHT22;26233;51.894;10.192;2023-11-22T12:17:55;7.10;50.30
40534;DHT22;26233;51.894;10.192;2023-11-22T12:20:23;7.00;50.20
40534;DHT22;26233;51.894;10.192;2023-11-22T12:22:52;7.00;50.20
40534;DHT22;26233;51.894;10.192;2023-11-22T12:25:19;6.90;50.20
40534;DHT22;26233;51.894;10.192;2023-11-22T12:27:49;6.90;50.10
40534;DHT22;26233;51.894;10.192;2023-11-22T12:30:31;6.80;50.00
40534;DHT22;26233;51.894;10.192;2023-11-22T12:33:03;6.80;49.60
40534;DHT22;26233;51.894;10.192;2023-11-22T12:35:32;6.70;50.10
40534;DHT22;26233;51.894;10.192;2023-11-22T12:38:00;6.70;50.30
40534;DHT22;26233;51.894;10.192;2023-11-22T12:40:28;6.70;50.40
40534;DHT22;26233;51.894;10.192;2023-11-22T12:43:00;6.70;50.40
40534;DHT22;26233;51.894;10.192;2023-11-22T12:45:28;6.70;50.30
40534;DHT22;26233;51.894;10.192;2023-11-22T12:47:57;6.70;50.40
40534;DHT22;26233;51.894;10.192;2023-11-22T12:50:35;6.70;50.30
40534;DHT22;26233;51.894;10.192;2023-11-22T12:53:10;6.70;50.20
40534;DHT22;26233;51.894;10.192;2023-11-22T12:55:41;6.70;50.60
40534;DHT22;26233;51.894;10.192;2023-11-22T12:58:12;6.80;50.80
40534;DHT22;26233;51.894;10.192;2023-11-22T13:00:39;6.80;50.70
40534;DHT22;26233;51.894;10.192;2023-11-22T13:03:07;6.80;50.40
40534;DHT22;26233;51.894;10.192;2023-11-22T13:05:35;6.80;50.20
40534;DHT22;26233;51.894;10.192;2023-11-22T13:08:03;6.80;50.00
40534;DHT22;26233;51.894;10.192;2023-11-22T13:10:30;6.70;50.00
40534;DHT22;26233;51.894;10.192;2023-11-22T13:12:57;6.70;49.90
40534;DHT22;26233;51.894;10.192;2023-11-22T13:15:28;6.70;49.90
40534;DHT22;26233;51.894;10.192;2023-11-22T13:17:55;6.60;49.90
40534;DHT22;26233;51.894;10.192;2023-11-22T13:20:24;6.60;49.70
40534;DHT22;26233;51.894;10.192;2023-11-22T13:22:52;6.60;49.40
40534;DHT22;26233;51.894;10.192;2023-11-22T13:25:19;6.50;49.20
40534;DHT22;26233;51.894;10.192;2023-11-22T13:27:46;6.40;49.30
40534;DHT22;26233;51.894;10.192;2023-11-22T13:30:14;6.40;49.30
40534;DHT22;26233;51.894;10.192;2023-11-22T13:32:46;6.30;49.30
40534;DHT22;26233;51.894;10.192;2023-11-22T13:35:13;6.20;49.00
40534;DHT22;26233;51.894;10.192;2023-11-22T13:37:43;6.20;49.00
40534;DHT22;26233;51.894;10.192;2023-11-22T13:40:12;6.10;49.00
40534;DHT22;26233;51.894;10.192;2023-11-22T13:42:41;6.00;48.80
40534;DHT22;26233;51.894;10.192;2023-11-22T13:45:10;5.90;48.80
40534;DHT22;26233;51.894;10.192;2023-11-22T13:47:41;5.80;48.80
40534;DHT22;26233;51.894;10.192;2023-11-22T13:50:14;5.70;48.60
40534;DHT22;26233;51.894;10.192;2023-11-22T13:52:44;5.60;48.60
40534;DHT22;26233;51.894;10.192;2023-11-22T13:55:12;5.50;48.70
40534;DHT22;26233;51.894;10.192;2023-11-22T13:57:39;5.50;48.90
40534;DHT22;26233;51.894;10.192;2023-11-22T14:00:08;5.40;48.80
40534;DHT22;26233;51.894;10.192;2023-11-22T14:02:39;5.30;48.90
40534;DHT22;26233;51.894;10.192;2023-11-22T14:05:09;5.30;49.00
40534;DHT22;26233;51.894;10.192;2023-11-22T14:07:38;5.20;49.00
40534;DHT22;26233;51.894;10.192;2023-11-22T14:10:06;5.20;49.00
40534;DHT22;26233;51.894;10.192;2023-11-22T14:12:35;5.20;49.10
40534;DHT22;26233;51.894;10.192;2023-11-22T14:15:02;5.20;49.00
40534;DHT22;26233;51.894;10.192;2023-11-22T14:17:31;5.10;49.00
40534;DHT22;26233;51.894;10.192;2023-11-22T14:19:58;5.10;49.00
40534;DHT22;26233;51.894;10.192;2023-11-22T14:22:26;5.10;48.80
40534;DHT22;26233;51.894;10.192;2023-11-22T14:24:53;5.00;48.70
40534;DHT22;26233;51.894;10.192;2023-11-22T14:27:22;5.00;48.80
40534;DHT22;26233;51.894;10.192;2023-11-22T14:29:49;4.90;48.80
40534;DHT22;26233;51.894;10.192;2023-11-22T14:32:19;4.90;48.80
40534;DHT22;26233;51.894;10.192;2023-11-22T14:34:47;4.90;48.80
40534;DHT22;26233;51.894;10.192;2023-11-22T14:37:15;4.90;48.60
40534;DHT22;26233;51.894;10.192;2023-11-22T14:39:44;5.00;48.90
40534;DHT22;26233;51.894;10.192;2023-11-22T14:42:11;4.80;48.60
40534;DHT22;26233;51.894;10.192;2023-11-22T14:44:38;4.80;48.70
40534;DHT22;26233;51.894;10.192;2023-11-22T14:47:05;4.80;48.90
40534;DHT22;26233;51.894;10.192;2023-11-22T14:49:40;4.80;48.90
40534;DHT22;26233;51.894;10.192;2023-11-22T14:52:08;4.70;48.80
40534;DHT22;26233;51.894;10.192;2023-11-22T14:54:36;4.70;48.90
40534;DHT22;26233;51.894;10.192;2023-11-22T14:57:04;4.70;48.90
40534;DHT22;26233;51.894;10.192;2023-11-22T14:59:34;4.70;48.90
40534;DHT22;26233;51.894;10.192;2023-11-22T15:02:02;4.70;48.90
40534;DHT22;26233;51.894;10.192;2023-11-22T15:04:30;4.70;48.90
40534;DHT22;26233;51.894;10.192;2023-11-22T15:06:58;4.70;49.00
40534;DHT22;26233;51.894;10.192;2023-11-22T15:09:25;4.70;49.00
40534;DHT22;26233;51.894;10.192;2023-11-22T15:11:52;4.60;48.90
40534;DHT22;26233;51.894;10.192;2023-11-22T15:14:21;4.60;48.90
40534;DHT22;26233;51.894;10.192;2023-11-22T15:16:49;4.60;48.80
40534;DHT22;26233;51.894;10.192;2023-11-22T15:19:16;4.50;48.80
40534;DHT22;26233;51.894;10.192;2023-11-22T15:21:44;4.60;48.90
40534;DHT22;26233;51.894;10.192;2023-11-22T15:24:11;4.50;48.80
40534;DHT22;26233;51.894;10.192;2023-11-22T15:26:38;4.50;49.00
40534;DHT22;26233;51.894;10.192;2023-11-22T15:29:05;4.50;49.00
40534;DHT22;26233;51.894;10.192;2023-11-22T15:31:34;4.50;49.00
40534;DHT22;26233;51.894;10.192;2023-11-22T15:34:01;4.50;49.10
40534;DHT22;26233;51.894;10.192;2023-11-22T15:36:28;4.40;48.90
40534;DHT22;26233;51.894;10.192;2023-11-22T15:38:55;4.40;48.90